Houn Maru — JG5489 — position and weather

sailwx.info

Track history (hours):
 
Tides and Currents Weather Stations Pressure Air Temp Water Temp Dewpoint Dewpoint Depression Visibility Wind Speed Wind Dir Waves Ship Positions

Houn Maru

Last reported at 2017-Mar-26 23:12 UTC. Time now 2017-Mar-27 00:46 UTC.
Position N 34°32' E 135°25'.

Length 91 m; draft 6 m.

Type: Tanker. MMSI: 431101172.

Date/timePositionNaut miles runAvg speedWind from/ knotsBaromVisibWave heightAir tempDewpointWater temp
2017-Mar-26 23:12N 34°32' E 135°25'1 2.1
2017-Mar-26 22:33N 34°32' E 135°23'4 3.4
2017-Mar-26 21:23N 34°33' E 135°18'0 0.1
2017-Mar-26 20:29N 34°33' E 135°18'0 0.0
2017-Mar-26 19:29N 34°33' E 135°18'3 2.8
2017-Mar-26 18:34N 34°33' E 135°15'1313.0
2017-Mar-26 17:32N 34°37' E 134°60'3 0.1
2017-Mar-25 10:33N 34°37' E 134°56'1312.7
2017-Mar-25 09:34N 34°35' E 135°11'1111.4
2017-Mar-25 08:33N 34°33' E 135°25'1 0.1
2017-Mar-24 23:23N 34°33' E 135°25'6 6.6
2017-Mar-24 22:33N 34°33' E 135°18'0 0.1
2017-Mar-24 21:32N 34°33' E 135°18'0 0.1
2017-Mar-24 20:32N 34°33' E 135°18'0 0.0
2017-Mar-24 19:14N 34°33' E 135°18'0 0.0
2017-Mar-24 18:32N 34°33' E 135°18'0 0.0
2017-Mar-24 17:08N 34°33' E 135°18'0 0.0
2017-Mar-24 16:32N 34°33' E 135°18'0 0.0
2017-Mar-24 15:32N 34°33' E 135°18'3 2.8
2017-Mar-24 14:33N 34°33' E 135°15'1211.8
2017-Mar-24 13:34N 34°37' E 135°01'2 0.1
2017-Mar-23 11:33N 34°37' E 134°59'1211.9
2017-Mar-23 10:34N 34°34' E 135°13'1010.1
2017-Mar-23 09:33N 34°33' E 135°25'0 0.0
2017-Mar-22 23:29N 34°33' E 135°25'6 6.3
2017-Mar-22 22:31N 34°33' E 135°18'0 0.0
2017-Mar-22 21:33N 34°33' E 135°18'0 0.0
2017-Mar-22 20:33N 34°33' E 135°18'0 0.0
2017-Mar-22 19:33N 34°33' E 135°18'0 0.0
2017-Mar-22 18:33N 34°33' E 135°18'2 2.2
2017-Mar-22 17:33N 34°34' E 135°15'1111.3
2017-Mar-22 16:33N 34°36' E 135°02'  
2017-Mar-19 11:32N 34°36' E 134°56'1010.3
2017-Mar-19 10:33N 34°35' E 135°08'1212.1
2017-Mar-19 09:33N 34°32' E 135°22'2 0.2
2017-Mar-18 23:32N 34°32' E 135°25'4 4.2
2017-Mar-18 22:33N 34°32' E 135°20'8 8.0
2017-Mar-18 21:33N 34°34' E 135°10'1111.3
2017-Mar-18 20:33N 34°36' E 134°57'1 0.0
2017-Mar-17 06:28N 34°36' E 134°55'910.1
2017-Mar-17 05:33N 34°36' E 135°06'6 6.4
2017-Mar-17 04:33N 34°41' E 135°12'0 0.0
2017-Mar-17 03:33N 34°41' E 135°12'0 0.0
2017-Mar-17 02:33N 34°41' E 135°12'0 0.0
2017-Mar-17 01:33N 34°41' E 135°12'0 0.0
2017-Mar-17 00:27N 34°41' E 135°12'0 0.0
2017-Mar-16 23:33N 34°41' E 135°12'  
Track history (hours):
 
Tides and Currents Weather Stations Pressure Air Temp Water Temp Dewpoint Dewpoint Depression Visibility Wind Speed Wind Dir Waves Ship Positions

Houn Maru

Last reported at 2017-Mar-26 23:12 UTC. Time now 2017-Mar-27 00:46 UTC.
Position N 34°32' E 135°25'.

Length 91 m; draft 6 m.

Type: Tanker. MMSI: 431101172.

Date/timePositionNaut miles runAvg speedWind from/ knotsBaromVisibWave heightAir tempDewpointWater temp
2017-Mar-26 23:12N 34°32' E 135°25'1 2.1
2017-Mar-26 22:33N 34°32' E 135°23'4 3.4
2017-Mar-26 21:23N 34°33' E 135°18'0 0.1
2017-Mar-26 20:29N 34°33' E 135°18'0 0.0
2017-Mar-26 19:29N 34°33' E 135°18'3 2.8
2017-Mar-26 18:34N 34°33' E 135°15'1313.0
2017-Mar-26 17:32N 34°37' E 134°60'3 0.1
2017-Mar-25 10:33N 34°37' E 134°56'1312.7
2017-Mar-25 09:34N 34°35' E 135°11'1111.4
2017-Mar-25 08:33N 34°33' E 135°25'1 0.1
2017-Mar-24 23:23N 34°33' E 135°25'6 6.6
2017-Mar-24 22:33N 34°33' E 135°18'0 0.1
2017-Mar-24 21:32N 34°33' E 135°18'0 0.1
2017-Mar-24 20:32N 34°33' E 135°18'0 0.0
2017-Mar-24 19:14N 34°33' E 135°18'0 0.0
2017-Mar-24 18:32N 34°33' E 135°18'0 0.0
2017-Mar-24 17:08N 34°33' E 135°18'0 0.0
2017-Mar-24 16:32N 34°33' E 135°18'0 0.0
2017-Mar-24 15:32N 34°33' E 135°18'3 2.8
2017-Mar-24 14:33N 34°33' E 135°15'1211.8
2017-Mar-24 13:34N 34°37' E 135°01'2 0.1
2017-Mar-23 11:33N 34°37' E 134°59'1211.9
2017-Mar-23 10:34N 34°34' E 135°13'1010.1
2017-Mar-23 09:33N 34°33' E 135°25'0 0.0
2017-Mar-22 23:29N 34°33' E 135°25'6 6.3
2017-Mar-22 22:31N 34°33' E 135°18'0 0.0
2017-Mar-22 21:33N 34°33' E 135°18'0 0.0
2017-Mar-22 20:33N 34°33' E 135°18'0 0.0
2017-Mar-22 19:33N 34°33' E 135°18'0 0.0
2017-Mar-22 18:33N 34°33' E 135°18'2 2.2
2017-Mar-22 17:33N 34°34' E 135°15'1111.3
2017-Mar-22 16:33N 34°36' E 135°02'  
2017-Mar-19 11:32N 34°36' E 134°56'1010.3
2017-Mar-19 10:33N 34°35' E 135°08'1212.1
2017-Mar-19 09:33N 34°32' E 135°22'2 0.2
2017-Mar-18 23:32N 34°32' E 135°25'4 4.2
2017-Mar-18 22:33N 34°32' E 135°20'8 8.0
2017-Mar-18 21:33N 34°34' E 135°10'1111.3
2017-Mar-18 20:33N 34°36' E 134°57'1 0.0
2017-Mar-17 06:28N 34°36' E 134°55'910.1
2017-Mar-17 05:33N 34°36' E 135°06'6 6.4
2017-Mar-17 04:33N 34°41' E 135°12'0 0.0
2017-Mar-17 03:33N 34°41' E 135°12'0 0.0
2017-Mar-17 02:33N 34°41' E 135°12'0 0.0
2017-Mar-17 01:33N 34°41' E 135°12'0 0.0
2017-Mar-17 00:27N 34°41' E 135°12'0 0.0
2017-Mar-16 23:33N 34°41' E 135°12'  

Dump ship's entire track history